sensor_id;sensor_type;location;lat;lon;timestamp;temperature;humidity
23568;DHT22;11962;50.838;4.430;2022-09-25T00:00:31;14.90;99.90
23568;DHT22;11962;50.838;4.430;2022-09-25T00:02:57;14.90;99.90
23568;DHT22;11962;50.838;4.430;2022-09-25T00:05:22;14.90;99.90
23568;DHT22;11962;50.838;4.430;2022-09-25T00:07:48;14.90;99.90
23568;DHT22;11962;50.838;4.430;2022-09-25T00:10:13;14.90;99.90
23568;DHT22;11962;50.838;4.430;2022-09-25T00:12:57;14.90;99.90
23568;DHT22;11962;50.838;4.430;2022-09-25T00:15:23;14.80;99.90
23568;DHT22;11962;50.838;4.430;2022-09-25T00:17:49;14.80;99.90
23568;DHT22;11962;50.838;4.430;2022-09-25T00:20:16;14.80;99.90
23568;DHT22;11962;50.838;4.430;2022-09-25T00:22:42;14.80;99.90
23568;DHT22;11962;50.838;4.430;2022-09-25T00:25:11;14.80;99.90
23568;DHT22;11962;50.838;4.430;2022-09-25T00:27:43;14.80;99.90
23568;DHT22;11962;50.838;4.430;2022-09-25T00:30:10;14.80;99.90
23568;DHT22;11962;50.838;4.430;2022-09-25T00:32:36;14.80;99.90
23568;DHT22;11962;50.838;4.430;2022-09-25T00:35:02;14.80;99.90
23568;DHT22;11962;50.838;4.430;2022-09-25T00:37:28;14.80;99.90
23568;DHT22;11962;50.838;4.430;2022-09-25T00:39:54;14.80;99.90
23568;DHT22;11962;50.838;4.430;2022-09-25T00:42:26;14.80;99.90
23568;DHT22;11962;50.838;4.430;2022-09-25T00:44:56;14.80;99.90
23568;DHT22;11962;50.838;4.430;2022-09-25T00:53:10;14.70;99.90
23568;DHT22;11962;50.838;4.430;2022-09-25T00:55:38;14.70;99.90
23568;DHT22;11962;50.838;4.430;2022-09-25T00:58:12;14.70;99.90
23568;DHT22;11962;50.838;4.430;2022-09-25T01:00:40;14.70;99.90
23568;DHT22;11962;50.838;4.430;2022-09-25T01:03:06;14.70;99.90
23568;DHT22;11962;50.838;4.430;2022-09-25T01:05:36;14.70;99.90
23568;DHT22;11962;50.838;4.430;2022-09-25T01:08:04;14.70;99.90
23568;DHT22;11962;50.838;4.430;2022-09-25T01:10:31;14.70;99.90
23568;DHT22;11962;50.838;4.430;2022-09-25T01:16:39;14.60;99.90
23568;DHT22;11962;50.838;4.430;2022-09-25T01:25:10;14.60;99.90
23568;DHT22;11962;50.838;4.430;2022-09-25T01:27:59;14.60;99.90
23568;DHT22;11962;50.838;4.430;2022-09-25T01:30:32;14.60;99.90
23568;DHT22;11962;50.838;4.430;2022-09-25T01:33:09;14.50;99.90
23568;DHT22;11962;50.838;4.430;2022-09-25T01:35:59;14.50;99.90
23568;DHT22;11962;50.838;4.430;2022-09-25T01:38:42;14.50;99.90
23568;DHT22;11962;50.838;4.430;2022-09-25T01:41:26;14.40;99.90
23568;DHT22;11962;50.838;4.430;2022-09-25T01:44:01;14.40;99.90
23568;DHT22;11962;50.838;4.430;2022-09-25T01:46:32;14.40;99.90
23568;DHT22;11962;50.838;4.430;2022-09-25T01:49:04;14.40;99.90
23568;DHT22;11962;50.838;4.430;2022-09-25T01:51:36;14.40;99.90
23568;DHT22;11962;50.838;4.430;2022-09-25T01:54:08;14.40;99.90
23568;DHT22;11962;50.838;4.430;2022-09-25T01:56:41;14.40;99.90
23568;DHT22;11962;50.838;4.430;2022-09-25T01:59:15;14.40;99.90
23568;DHT22;11962;50.838;4.430;2022-09-25T02:01:43;14.30;99.90
23568;DHT22;11962;50.838;4.430;2022-09-25T02:04:13;14.30;99.90
23568;DHT22;11962;50.838;4.430;2022-09-25T02:06:44;14.30;99.90
23568;DHT22;11962;50.838;4.430;2022-09-25T02:09:31;14.20;99.90
23568;DHT22;11962;50.838;4.430;2022-09-25T02:12:03;14.20;99.90
23568;DHT22;11962;50.838;4.430;2022-09-25T02:14:36;14.20;99.90
23568;DHT22;11962;50.838;4.430;2022-09-25T02:17:06;14.20;99.90
23568;DHT22;11962;50.838;4.430;2022-09-25T02:19:35;14.10;99.90
23568;DHT22;11962;50.838;4.430;2022-09-25T02:22:30;14.10;99.90
23568;DHT22;11962;50.838;4.430;2022-09-25T02:25:01;14.00;99.90
23568;DHT22;11962;50.838;4.430;2022-09-25T02:27:28;14.00;99.90
23568;DHT22;11962;50.838;4.430;2022-09-25T02:29:55;14.00;99.90
23568;DHT22;11962;50.838;4.430;2022-09-25T02:32:30;13.90;99.90
23568;DHT22;11962;50.838;4.430;2022-09-25T02:34:58;13.90;99.90
23568;DHT22;11962;50.838;4.430;2022-09-25T02:37:25;13.80;99.90
23568;DHT22;11962;50.838;4.430;2022-09-25T02:39:54;13.80;99.90
23568;DHT22;11962;50.838;4.430;2022-09-25T02:51:31;13.70;99.90
23568;DHT22;11962;50.838;4.430;2022-09-25T02:54:11;13.60;99.90
23568;DHT22;11962;50.838;4.430;2022-09-25T03:00:33;13.50;99.90
23568;DHT22;11962;50.838;4.430;2022-09-25T03:03:00;13.40;99.90
23568;DHT22;11962;50.838;4.430;2022-09-25T03:05:29;13.40;99.90
23568;DHT22;11962;50.838;4.430;2022-09-25T03:07:55;13.30;99.90
23568;DHT22;11962;50.838;4.430;2022-09-25T03:10:39;13.30;99.90
23568;DHT22;11962;50.838;4.430;2022-09-25T03:13:18;13.20;99.90
23568;DHT22;11962;50.838;4.430;2022-09-25T03:15:49;13.20;99.90
23568;DHT22;11962;50.838;4.430;2022-09-25T03:18:16;13.20;99.90
23568;DHT22;11962;50.838;4.430;2022-09-25T03:20:43;13.20;99.90
23568;DHT22;11962;50.838;4.430;2022-09-25T03:23:08;13.10;99.90
23568;DHT22;11962;50.838;4.430;2022-09-25T03:25:36;13.10;99.90
23568;DHT22;11962;50.838;4.430;2022-09-25T03:31:24;13.00;99.90
23568;DHT22;11962;50.838;4.430;2022-09-25T03:33:50;12.90;99.90
23568;DHT22;11962;50.838;4.430;2022-09-25T03:36:17;12.90;99.90
23568;DHT22;11962;50.838;4.430;2022-09-25T03:38:44;12.80;99.90
23568;DHT22;11962;50.838;4.430;2022-09-25T03:41:12;12.80;99.90
23568;DHT22;11962;50.838;4.430;2022-09-25T03:47:00;12.70;99.90
23568;DHT22;11962;50.838;4.430;2022-09-25T03:49:26;12.60;99.90
23568;DHT22;11962;50.838;4.430;2022-09-25T03:51:51;12.60;99.90
23568;DHT22;11962;50.838;4.430;2022-09-25T03:54:17;12.60;99.90
23568;DHT22;11962;50.838;4.430;2022-09-25T03:56:42;12.50;99.90
23568;DHT22;11962;50.838;4.430;2022-09-25T03:59:26;12.50;99.90
23568;DHT22;11962;50.838;4.430;2022-09-25T04:01:52;12.50;99.90
23568;DHT22;11962;50.838;4.430;2022-09-25T04:04:18;12.50;99.90
23568;DHT22;11962;50.838;4.430;2022-09-25T04:06:44;12.40;99.90
23568;DHT22;11962;50.838;4.430;2022-09-25T04:09:10;12.40;99.90
23568;DHT22;11962;50.838;4.430;2022-09-25T04:11:36;12.40;99.90
23568;DHT22;11962;50.838;4.430;2022-09-25T04:14:03;12.40;99.90
23568;DHT22;11962;50.838;4.430;2022-09-25T04:16:29;12.30;99.90
23568;DHT22;11962;50.838;4.430;2022-09-25T04:18:55;12.30;99.90
23568;DHT22;11962;50.838;4.430;2022-09-25T04:21:21;12.30;99.90
23568;DHT22;11962;50.838;4.430;2022-09-25T04:23:47;12.20;99.90
23568;DHT22;11962;50.838;4.430;2022-09-25T04:26:32;12.20;99.90
23568;DHT22;11962;50.838;4.430;2022-09-25T04:29:03;12.20;99.90
23568;DHT22;11962;50.838;4.430;2022-09-25T04:31:30;12.10;99.90
23568;DHT22;11962;50.838;4.430;2022-09-25T04:33:55;12.10;99.90
23568;DHT22;11962;50.838;4.430;2022-09-25T04:36:21;12.10;99.90
23568;DHT22;11962;50.838;4.430;2022-09-25T04:38:47;12.10;99.90
23568;DHT22;11962;50.838;4.430;2022-09-25T04:41:16;12.10;99.90
23568;DHT22;11962;50.838;4.430;2022-09-25T04:43:53;12.10;99.90
23568;DHT22;11962;50.838;4.430;2022-09-25T04:46:19;12.10;99.90
23568;DHT22;11962;50.838;4.430;2022-09-25T04:48:44;12.00;99.90
23568;DHT22;11962;50.838;4.430;2022-09-25T04:51:11;12.00;99.90
23568;DHT22;11962;50.838;4.430;2022-09-25T04:53:36;12.00;99.90
23568;DHT22;11962;50.838;4.430;2022-09-25T04:56:05;12.00;99.90
23568;DHT22;11962;50.838;4.430;2022-09-25T04:58:36;11.90;99.90
23568;DHT22;11962;50.838;4.430;2022-09-25T05:01:04;12.00;99.90
23568;DHT22;11962;50.838;4.430;2022-09-25T05:03:30;11.90;99.90
23568;DHT22;11962;50.838;4.430;2022-09-25T05:05:56;11.90;99.90
23568;DHT22;11962;50.838;4.430;2022-09-25T05:08:21;11.90;99.90
23568;DHT22;11962;50.838;4.430;2022-09-25T05:10:47;11.90;99.90
23568;DHT22;11962;50.838;4.430;2022-09-25T05:13:13;11.90;99.90
23568;DHT22;11962;50.838;4.430;2022-09-25T05:16:02;11.80;99.90
23568;DHT22;11962;50.838;4.430;2022-09-25T05:18:28;11.80;99.90
23568;DHT22;11962;50.838;4.430;2022-09-25T05:20:54;11.80;99.90
23568;DHT22;11962;50.838;4.430;2022-09-25T05:23:20;11.80;99.90
23568;DHT22;11962;50.838;4.430;2022-09-25T05:25:56;11.80;99.90
23568;DHT22;11962;50.838;4.430;2022-09-25T05:28:29;11.80;99.90
23568;DHT22;11962;50.838;4.430;2022-09-25T05:31:05;11.70;99.90
23568;DHT22;11962;50.838;4.430;2022-09-25T05:33:32;11.70;99.90
23568;DHT22;11962;50.838;4.430;2022-09-25T05:36:01;11.70;99.90
23568;DHT22;11962;50.838;4.430;2022-09-25T05:38:27;11.70;99.90
23568;DHT22;11962;50.838;4.430;2022-09-25T05:40:53;11.70;99.90
23568;DHT22;11962;50.838;4.430;2022-09-25T05:43:21;11.70;99.90
23568;DHT22;11962;50.838;4.430;2022-09-25T05:46:10;11.70;99.90
23568;DHT22;11962;50.838;4.430;2022-09-25T05:48:36;11.70;99.90
23568;DHT22;11962;50.838;4.430;2022-09-25T05:51:02;11.70;99.90
23568;DHT22;11962;50.838;4.430;2022-09-25T05:53:28;11.60;99.90
23568;DHT22;11962;50.838;4.430;2022-09-25T05:56:00;11.60;99.90
23568;DHT22;11962;50.838;4.430;2022-09-25T05:58:27;11.60;99.90
23568;DHT22;11962;50.838;4.430;2022-09-25T06:00:53;11.60;99.90
23568;DHT22;11962;50.838;4.430;2022-09-25T06:03:20;11.60;99.90
23568;DHT22;11962;50.838;4.430;2022-09-25T06:05:46;11.60;99.90
23568;DHT22;11962;50.838;4.430;2022-09-25T06:08:14;11.60;99.90
23568;DHT22;11962;50.838;4.430;2022-09-25T06:10:40;11.60;99.90
23568;DHT22;11962;50.838;4.430;2022-09-25T06:13:06;11.60;99.90
23568;DHT22;11962;50.838;4.430;2022-09-25T06:15:37;11.60;99.90
23568;DHT22;11962;50.838;4.430;2022-09-25T06:18:04;11.70;99.90
23568;DHT22;11962;50.838;4.430;2022-09-25T06:20:30;11.70;99.90
23568;DHT22;11962;50.838;4.430;2022-09-25T06:22:57;11.70;99.90
23568;DHT22;11962;50.838;4.430;2022-09-25T06:25:25;11.80;99.90
23568;DHT22;11962;50.838;4.430;2022-09-25T06:27:56;11.80;99.90
23568;DHT22;11962;50.838;4.430;2022-09-25T06:30:33;11.90;99.90
23568;DHT22;11962;50.838;4.430;2022-09-25T06:33:04;11.90;99.90
23568;DHT22;11962;50.838;4.430;2022-09-25T06:35:32;11.90;99.90
23568;DHT22;11962;50.838;4.430;2022-09-25T06:38:00;12.00;99.90
23568;DHT22;11962;50.838;4.430;2022-09-25T06:40:27;12.00;99.90
23568;DHT22;11962;50.838;4.430;2022-09-25T06:42:58;12.20;99.90
23568;DHT22;11962;50.838;4.430;2022-09-25T06:45:32;12.20;99.90
23568;DHT22;11962;50.838;4.430;2022-09-25T06:48:03;12.30;99.90
23568;DHT22;11962;50.838;4.430;2022-09-25T06:53:03;12.40;99.90
23568;DHT22;11962;50.838;4.430;2022-09-25T06:55:29;12.50;99.90
23568;DHT22;11962;50.838;4.430;2022-09-25T06:57:57;12.60;99.90
23568;DHT22;11962;50.838;4.430;2022-09-25T07:00:30;12.60;99.90
23568;DHT22;11962;50.838;4.430;2022-09-25T07:02:59;12.70;99.90
23568;DHT22;11962;50.838;4.430;2022-09-25T07:05:44;12.80;99.90
23568;DHT22;11962;50.838;4.430;2022-09-25T07:08:11;12.90;99.90
23568;DHT22;11962;50.838;4.430;2022-09-25T07:10:38;12.90;99.90
23568;DHT22;11962;50.838;4.430;2022-09-25T07:13:04;13.00;99.90
23568;DHT22;11962;50.838;4.430;2022-09-25T07:15:35;13.10;99.90
23568;DHT22;11962;50.838;4.430;2022-09-25T07:18:01;13.20;99.90
23568;DHT22;11962;50.838;4.430;2022-09-25T07:20:26;13.30;99.90
23568;DHT22;11962;50.838;4.430;2022-09-25T07:22:52;13.40;99.90
23568;DHT22;11962;50.838;4.430;2022-09-25T07:25:18;13.50;99.90
23568;DHT22;11962;50.838;4.430;2022-09-25T07:27:44;13.60;99.90
23568;DHT22;11962;50.838;4.430;2022-09-25T07:30:38;13.70;99.90
23568;DHT22;11962;50.838;4.430;2022-09-25T07:33:11;13.90;99.90
23568;DHT22;11962;50.838;4.430;2022-09-25T07:35:37;14.00;99.90
23568;DHT22;11962;50.838;4.430;2022-09-25T07:38:04;14.20;99.90
23568;DHT22;11962;50.838;4.430;2022-09-25T07:40:30;14.60;99.90
23568;DHT22;11962;50.838;4.430;2022-09-25T07:43:03;16.10;99.90
23568;DHT22;11962;50.838;4.430;2022-09-25T07:46:05;19.20;99.90
23568;DHT22;11962;50.838;4.430;2022-09-25T07:48:31;23.10;99.90
23568;DHT22;11962;50.838;4.430;2022-09-25T07:51:00;25.40;99.90
23568;DHT22;11962;50.838;4.430;2022-09-25T07:53:26;27.50;96.70
23568;DHT22;11962;50.838;4.430;2022-09-25T07:55:58;29.30;90.50
23568;DHT22;11962;50.838;4.430;2022-09-25T07:58:24;30.80;80.10
23568;DHT22;11962;50.838;4.430;2022-09-25T08:04:32;33.10;63.80
23568;DHT22;11962;50.838;4.430;2022-09-25T08:06:58;34.10;59.60
23568;DHT22;11962;50.838;4.430;2022-09-25T08:09:24;34.90;56.60
23568;DHT22;11962;50.838;4.430;2022-09-25T08:11:50;35.60;53.50
23568;DHT22;11962;50.838;4.430;2022-09-25T08:14:16;36.40;51.70
23568;DHT22;11962;50.838;4.430;2022-09-25T08:16:48;36.90;49.50
23568;DHT22;11962;50.838;4.430;2022-09-25T08:19:14;37.40;48.60
23568;DHT22;11962;50.838;4.430;2022-09-25T08:21:43;37.80;47.20
23568;DHT22;11962;50.838;4.430;2022-09-25T08:24:09;38.20;46.10
23568;DHT22;11962;50.838;4.430;2022-09-25T08:26:35;38.50;45.40
23568;DHT22;11962;50.838;4.430;2022-09-25T08:29:02;39.00;44.70
23568;DHT22;11962;50.838;4.430;2022-09-25T08:31:32;39.40;43.50
23568;DHT22;11962;50.838;4.430;2022-09-25T08:33:58;39.70;42.60
23568;DHT22;11962;50.838;4.430;2022-09-25T08:36:24;39.80;42.00
23568;DHT22;11962;50.838;4.430;2022-09-25T08:38:50;40.00;41.10
23568;DHT22;11962;50.838;4.430;2022-09-25T08:41:25;40.60;41.00
23568;DHT22;11962;50.838;4.430;2022-09-25T08:53:42;41.70;38.10
23568;DHT22;11962;50.838;4.430;2022-09-25T08:56:10;41.80;38.10
23568;DHT22;11962;50.838;4.430;2022-09-25T08:58:51;41.90;36.60
23568;DHT22;11962;50.838;4.430;2022-09-25T09:01:25;42.20;36.90
23568;DHT22;11962;50.838;4.430;2022-09-25T09:04:05;42.60;36.30
23568;DHT22;11962;50.838;4.430;2022-09-25T09:06:32;41.90;36.90
23568;DHT22;11962;50.838;4.430;2022-09-25T09:09:08;41.90;36.80
23568;DHT22;11962;50.838;4.430;2022-09-25T09:14:29;42.00;35.10
23568;DHT22;11962;50.838;4.430;2022-09-25T09:20:21;40.10;37.10
23568;DHT22;11962;50.838;4.430;2022-09-25T09:22:50;40.60;36.90
23568;DHT22;11962;50.838;4.430;2022-09-25T09:25:41;41.30;36.20
23568;DHT22;11962;50.838;4.430;2022-09-25T09:28:36;42.00;35.60
23568;DHT22;11962;50.838;4.430;2022-09-25T09:31:59;42.20;35.10
23568;DHT22;11962;50.838;4.430;2022-09-25T09:48:27;40.90;35.10
23568;DHT22;11962;50.838;4.430;2022-09-25T09:50:59;40.60;35.50
23568;DHT22;11962;50.838;4.430;2022-09-25T09:56:13;41.60;34.10
23568;DHT22;11962;50.838;4.430;2022-09-25T09:58:48;42.10;33.70
23568;DHT22;11962;50.838;4.430;2022-09-25T10:01:17;42.90;33.40
23568;DHT22;11962;50.838;4.430;2022-09-25T10:06:35;43.30;32.00
23568;DHT22;11962;50.838;4.430;2022-09-25T10:09:01;40.60;34.40
23568;DHT22;11962;50.838;4.430;2022-09-25T10:11:28;38.50;36.10
23568;DHT22;11962;50.838;4.430;2022-09-25T10:13:57;38.90;36.10
23568;DHT22;11962;50.838;4.430;2022-09-25T10:16:26;39.90;35.00
23568;DHT22;11962;50.838;4.430;2022-09-25T10:19:22;40.20;33.90
23568;DHT22;11962;50.838;4.430;2022-09-25T10:24:56;39.60;34.90
23568;DHT22;11962;50.838;4.430;2022-09-25T10:27:38;40.40;34.00
23568;DHT22;11962;50.838;4.430;2022-09-25T10:35:57;34.10;40.60
23568;DHT22;11962;50.838;4.430;2022-09-25T10:38:44;34.50;40.00
23568;DHT22;11962;50.838;4.430;2022-09-25T10:41:13;33.80;40.60
23568;DHT22;11962;50.838;4.430;2022-09-25T10:43:56;32.40;42.40
23568;DHT22;11962;50.838;4.430;2022-09-25T10:46:34;31.00;43.90
23568;DHT22;11962;50.838;4.430;2022-09-25T10:49:25;30.10;45.40
23568;DHT22;11962;50.838;4.430;2022-09-25T10:52:15;31.30;44.80
23568;DHT22;11962;50.838;4.430;2022-09-25T10:54:44;33.60;41.80
23568;DHT22;11962;50.838;4.430;2022-09-25T10:57:42;34.00;41.10
23568;DHT22;11962;50.838;4.430;2022-09-25T11:00:22;33.60;41.80
23568;DHT22;11962;50.838;4.430;2022-09-25T11:02:50;33.10;42.10
23568;DHT22;11962;50.838;4.430;2022-09-25T11:05:31;31.70;43.70
23568;DHT22;11962;50.838;4.430;2022-09-25T11:08:01;30.00;45.40
23568;DHT22;11962;50.838;4.430;2022-09-25T11:10:30;28.90;47.20
23568;DHT22;11962;50.838;4.430;2022-09-25T11:12:58;28.00;49.00
23568;DHT22;11962;50.838;4.430;2022-09-25T11:15:25;27.30;50.40
23568;DHT22;11962;50.838;4.430;2022-09-25T11:17:56;26.70;51.50
23568;DHT22;11962;50.838;4.430;2022-09-25T11:20:27;26.50;51.70
23568;DHT22;11962;50.838;4.430;2022-09-25T11:25:55;26.10;52.40
23568;DHT22;11962;50.838;4.430;2022-09-25T11:31:35;25.80;53.60
23568;DHT22;11962;50.838;4.430;2022-09-25T11:34:39;25.60;54.20
23568;DHT22;11962;50.838;4.430;2022-09-25T11:39:48;25.00;55.50
23568;DHT22;11962;50.838;4.430;2022-09-25T11:45:19;24.80;56.40
23568;DHT22;11962;50.838;4.430;2022-09-25T11:48:03;25.00;56.10
23568;DHT22;11962;50.838;4.430;2022-09-25T11:50:47;25.40;55.90
23568;DHT22;11962;50.838;4.430;2022-09-25T12:01:47;27.80;51.80
23568;DHT22;11962;50.838;4.430;2022-09-25T12:07:12;27.50;51.30
23568;DHT22;11962;50.838;4.430;2022-09-25T12:13:01;27.10;52.30
23568;DHT22;11962;50.838;4.430;2022-09-25T12:21:26;26.20;53.70
23568;DHT22;11962;50.838;4.430;2022-09-25T12:29:12;25.10;55.10
23568;DHT22;11962;50.838;4.430;2022-09-25T12:32:05;24.70;55.00
23568;DHT22;11962;50.838;4.430;2022-09-25T12:37:52;24.50;57.10
23568;DHT22;11962;50.838;4.430;2022-09-25T12:43:03;24.50;56.70
23568;DHT22;11962;50.838;4.430;2022-09-25T12:48:57;24.20;56.70
23568;DHT22;11962;50.838;4.430;2022-09-25T12:59:22;23.50;57.60
23568;DHT22;11962;50.838;4.430;2022-09-25T13:02:01;23.40;58.00
23568;DHT22;11962;50.838;4.430;2022-09-25T13:07:08;23.20;58.70
23568;DHT22;11962;50.838;4.430;2022-09-25T13:09:43;23.00;59.20
23568;DHT22;11962;50.838;4.430;2022-09-25T13:12:18;22.90;60.20
23568;DHT22;11962;50.838;4.430;2022-09-25T13:14:50;22.80;60.70
23568;DHT22;11962;50.838;4.430;2022-09-25T13:17:17;22.60;61.30
23568;DHT22;11962;50.838;4.430;2022-09-25T13:19:43;22.60;61.60
23568;DHT22;11962;50.838;4.430;2022-09-25T13:22:12;22.60;62.10
23568;DHT22;11962;50.838;4.430;2022-09-25T13:27:28;22.50;62.10
23568;DHT22;11962;50.838;4.430;2022-09-25T13:29:59;22.40;61.20
23568;DHT22;11962;50.838;4.430;2022-09-25T13:32:27;22.30;62.10
23568;DHT22;11962;50.838;4.430;2022-09-25T13:35:03;22.30;61.50
23568;DHT22;11962;50.838;4.430;2022-09-25T13:37:37;22.10;62.00
23568;DHT22;11962;50.838;4.430;2022-09-25T13:46:20;21.70;61.30
23568;DHT22;11962;50.838;4.430;2022-09-25T13:48:35;21.70;61.90
23568;DHT22;11962;50.838;4.430;2022-09-25T13:54:02;21.60;63.60
23568;DHT22;11962;50.838;4.430;2022-09-25T14:01:37;21.70;63.20
23568;DHT22;11962;50.838;4.430;2022-09-25T14:04:30;21.80;63.50
23568;DHT22;11962;50.838;4.430;2022-09-25T14:07:09;21.90;63.40
23568;DHT22;11962;50.838;4.430;2022-09-25T14:09:44;22.00;63.60
23568;DHT22;11962;50.838;4.430;2022-09-25T14:12:24;22.10;62.00
23568;DHT22;11962;50.838;4.430;2022-09-25T14:15:37;22.20;61.20
23568;DHT22;11962;50.838;4.430;2022-09-25T14:17:41;22.30;61.00
23568;DHT22;11962;50.838;4.430;2022-09-25T14:22:57;22.30;60.90
23568;DHT22;11962;50.838;4.430;2022-09-25T14:25:28;22.20;60.70
23568;DHT22;11962;50.838;4.430;2022-09-25T14:27:58;22.20;60.50
23568;DHT22;11962;50.838;4.430;2022-09-25T14:30:25;22.20;61.10
23568;DHT22;11962;50.838;4.430;2022-09-25T14:38:38;22.20;63.70
23568;DHT22;11962;50.838;4.430;2022-09-25T14:46:35;22.10;64.30
23568;DHT22;11962;50.838;4.430;2022-09-25T14:49:22;22.10;64.50
23568;DHT22;11962;50.838;4.430;2022-09-25T14:51:50;22.10;63.70
23568;DHT22;11962;50.838;4.430;2022-09-25T14:54:21;22.00;64.00
23568;DHT22;11962;50.838;4.430;2022-09-25T14:56:53;21.90;64.50
23568;DHT22;11962;50.838;4.430;2022-09-25T15:02:02;21.80;65.50
23568;DHT22;11962;50.838;4.430;2022-09-25T15:04:50;21.60;65.30
23568;DHT22;11962;50.838;4.430;2022-09-25T15:07:29;21.50;65.80
23568;DHT22;11962;50.838;4.430;2022-09-25T15:09:56;21.30;66.50
23568;DHT22;11962;50.838;4.430;2022-09-25T15:12:27;21.20;67.30
23568;DHT22;11962;50.838;4.430;2022-09-25T15:15:09;21.10;67.40
23568;DHT22;11962;50.838;4.430;2022-09-25T15:17:46;20.90;67.70
23568;DHT22;11962;50.838;4.430;2022-09-25T15:23:52;21.00;68.10
23568;DHT22;11962;50.838;4.430;2022-09-25T15:26:19;21.10;68.00
23568;DHT22;11962;50.838;4.430;2022-09-25T15:28:45;21.10;68.00
23568;DHT22;11962;50.838;4.430;2022-09-25T15:31:11;21.20;67.90
23568;DHT22;11962;50.838;4.430;2022-09-25T15:33:38;21.20;68.20
23568;DHT22;11962;50.838;4.430;2022-09-25T15:36:22;21.20;67.00
23568;DHT22;11962;50.838;4.430;2022-09-25T15:39:05;21.20;67.00
23568;DHT22;11962;50.838;4.430;2022-09-25T15:41:34;21.10;67.00
23568;DHT22;11962;50.838;4.430;2022-09-25T15:46:55;21.20;67.10
23568;DHT22;11962;50.838;4.430;2022-09-25T15:49:38;21.10;67.20
23568;DHT22;11962;50.838;4.430;2022-09-25T15:54:46;21.00;68.00
23568;DHT22;11962;50.838;4.430;2022-09-25T15:57:22;21.00;67.40
23568;DHT22;11962;50.838;4.430;2022-09-25T15:59:50;21.00;67.70
23568;DHT22;11962;50.838;4.430;2022-09-25T16:02:39;21.20;67.70
23568;DHT22;11962;50.838;4.430;2022-09-25T16:12:21;21.80;64.90
23568;DHT22;11962;50.838;4.430;2022-09-25T16:14:51;22.10;64.20
23568;DHT22;11962;50.838;4.430;2022-09-25T16:17:21;22.10;64.00
23568;DHT22;11962;50.838;4.430;2022-09-25T16:19:59;22.10;63.80
23568;DHT22;11962;50.838;4.430;2022-09-25T16:22:44;22.00;63.80
23568;DHT22;11962;50.838;4.430;2022-09-25T16:25:17;21.90;63.90
23568;DHT22;11962;50.838;4.430;2022-09-25T16:27:45;21.60;64.00
23568;DHT22;11962;50.838;4.430;2022-09-25T16:30:16;21.50;64.60
23568;DHT22;11962;50.838;4.430;2022-09-25T16:32:49;21.30;65.50
23568;DHT22;11962;50.838;4.430;2022-09-25T16:35:38;21.20;65.90
23568;DHT22;11962;50.838;4.430;2022-09-25T16:38:04;21.00;67.50
23568;DHT22;11962;50.838;4.430;2022-09-25T16:40:31;20.80;69.50
23568;DHT22;11962;50.838;4.430;2022-09-25T16:43:04;20.70;70.40
23568;DHT22;11962;50.838;4.430;2022-09-25T16:45:59;20.60;72.00
23568;DHT22;11962;50.838;4.430;2022-09-25T16:54:02;19.90;75.60
23568;DHT22;11962;50.838;4.430;2022-09-25T16:56:29;19.70;76.90
23568;DHT22;11962;50.838;4.430;2022-09-25T16:58:56;19.60;77.60
23568;DHT22;11962;50.838;4.430;2022-09-25T17:01:24;19.50;78.40
23568;DHT22;11962;50.838;4.430;2022-09-25T17:03:50;19.40;79.10
23568;DHT22;11962;50.838;4.430;2022-09-25T17:06:18;19.30;79.90
23568;DHT22;11962;50.838;4.430;2022-09-25T17:08:44;19.20;80.50
23568;DHT22;11962;50.838;4.430;2022-09-25T17:11:11;19.10;81.20
23568;DHT22;11962;50.838;4.430;2022-09-25T17:13:36;19.00;82.00
23568;DHT22;11962;50.838;4.430;2022-09-25T17:16:03;18.90;82.50
23568;DHT22;11962;50.838;4.430;2022-09-25T17:18:29;18.80;83.30
23568;DHT22;11962;50.838;4.430;2022-09-25T17:20:58;18.80;84.00
23568;DHT22;11962;50.838;4.430;2022-09-25T17:23:25;18.80;84.60
23568;DHT22;11962;50.838;4.430;2022-09-25T17:26:03;18.70;85.30
23568;DHT22;11962;50.838;4.430;2022-09-25T17:28:30;18.70;86.00
23568;DHT22;11962;50.838;4.430;2022-09-25T17:30:58;18.60;86.60
23568;DHT22;11962;50.838;4.430;2022-09-25T17:33:24;18.60;87.10
23568;DHT22;11962;50.838;4.430;2022-09-25T17:35:56;18.60;87.90
23568;DHT22;11962;50.838;4.430;2022-09-25T17:38:26;18.60;88.50
23568;DHT22;11962;50.838;4.430;2022-09-25T17:40:53;18.50;88.90
23568;DHT22;11962;50.838;4.430;2022-09-25T17:43:20;18.50;89.50
23568;DHT22;11962;50.838;4.430;2022-09-25T17:45:51;18.40;90.10
23568;DHT22;11962;50.838;4.430;2022-09-25T17:48:21;18.30;90.10
23568;DHT22;11962;50.838;4.430;2022-09-25T17:54:08;18.20;90.60
23568;DHT22;11962;50.838;4.430;2022-09-25T17:56:34;18.10;90.70
23568;DHT22;11962;50.838;4.430;2022-09-25T17:59:00;18.00;91.00
23568;DHT22;11962;50.838;4.430;2022-09-25T18:01:28;17.90;91.00
23568;DHT22;11962;50.838;4.430;2022-09-25T18:03:59;17.80;91.30
23568;DHT22;11962;50.838;4.430;2022-09-25T18:13:14;17.70;91.90
23568;DHT22;11962;50.838;4.430;2022-09-25T18:15:50;17.70;92.20
23568;DHT22;11962;50.838;4.430;2022-09-25T18:18:17;17.60;92.30
23568;DHT22;11962;50.838;4.430;2022-09-25T18:20:43;17.50;92.60
23568;DHT22;11962;50.838;4.430;2022-09-25T18:23:28;17.40;93.00
23568;DHT22;11962;50.838;4.430;2022-09-25T18:25:58;17.30;92.90
23568;DHT22;11962;50.838;4.430;2022-09-25T18:28:24;17.20;92.90
23568;DHT22;11962;50.838;4.430;2022-09-25T18:30:50;17.20;92.90
23568;DHT22;11962;50.838;4.430;2022-09-25T18:33:15;17.20;92.90
23568;DHT22;11962;50.838;4.430;2022-09-25T18:35:41;17.00;93.00
23568;DHT22;11962;50.838;4.430;2022-09-25T18:38:07;17.00;93.20
23568;DHT22;11962;50.838;4.430;2022-09-25T18:40:33;16.90;93.40
23568;DHT22;11962;50.838;4.430;2022-09-25T18:42:58;16.80;94.00
23568;DHT22;11962;50.838;4.430;2022-09-25T18:45:26;16.80;93.90
23568;DHT22;11962;50.838;4.430;2022-09-25T18:47:52;16.80;94.20
23568;DHT22;11962;50.838;4.430;2022-09-25T18:50:18;16.80;94.50
23568;DHT22;11962;50.838;4.430;2022-09-25T18:52:49;16.70;94.80
23568;DHT22;11962;50.838;4.430;2022-09-25T18:55:15;16.60;95.00
23568;DHT22;11962;50.838;4.430;2022-09-25T18:57:41;16.60;95.20
23568;DHT22;11962;50.838;4.430;2022-09-25T19:00:08;16.50;95.80
23568;DHT22;11962;50.838;4.430;2022-09-25T19:02:34;16.50;95.90
23568;DHT22;11962;50.838;4.430;2022-09-25T19:05:04;16.40;96.20
23568;DHT22;11962;50.838;4.430;2022-09-25T19:07:30;16.30;96.50
23568;DHT22;11962;50.838;4.430;2022-09-25T19:09:56;16.20;96.80
23568;DHT22;11962;50.838;4.430;2022-09-25T19:12:23;16.20;97.00
23568;DHT22;11962;50.838;4.430;2022-09-25T19:14:49;16.20;97.40
23568;DHT22;11962;50.838;4.430;2022-09-25T19:17:16;16.10;97.60
23568;DHT22;11962;50.838;4.430;2022-09-25T19:19:43;16.20;97.90
23568;DHT22;11962;50.838;4.430;2022-09-25T19:22:17;16.10;98.10